createdAt,value
2022-07-30T00:01:54.467Z,96.90
2022-07-30T00:04:22.390Z,97.04
2022-07-30T00:06:49.973Z,96.58
2022-07-30T00:09:17.674Z,96.06
2022-07-30T00:11:45.277Z,96.61
2022-07-30T00:14:13.175Z,97.64
2022-07-30T00:16:42.547Z,98.08
2022-07-30T00:19:10.669Z,97.68
2022-07-30T00:21:39.340Z,97.50
2022-07-30T00:24:08.454Z,98.05
2022-07-30T00:26:36.146Z,98.27
2022-07-30T00:29:04.674Z,98.73
2022-07-30T00:31:32.553Z,99.12
2022-07-30T00:34:01.577Z,99.58
2022-07-30T00:36:29.280Z,99.99
2022-07-30T00:38:57.112Z,99.86
2022-07-30T00:41:25.670Z,100.00
2022-07-30T00:43:53.395Z,100.00
2022-07-30T00:46:21.743Z,100.00
2022-07-30T00:48:50.272Z,100.00
2022-07-30T00:51:19.322Z,100.00
2022-07-30T00:53:46.897Z,100.00
2022-07-30T00:56:15.481Z,100.00
2022-07-30T00:58:44.197Z,100.00
2022-07-30T01:01:11.935Z,100.00
2022-07-30T01:03:39.589Z,100.00
2022-07-30T01:06:07.309Z,99.94
2022-07-30T01:08:44.168Z,99.40
2022-07-30T01:11:12.702Z,99.06
2022-07-30T01:13:43.591Z,99.21
2022-07-30T01:16:11.598Z,99.31
2022-07-30T01:18:58.227Z,99.37
2022-07-30T01:21:33.640Z,99.36
2022-07-30T01:24:20.339Z,99.71
2022-07-30T01:26:51.664Z,100.00
2022-07-30T01:29:20.350Z,100.00
2022-07-30T01:31:50.358Z,100.00
2022-07-30T01:34:19.055Z,100.00
2022-07-30T01:36:47.894Z,100.00
2022-07-30T01:39:18.625Z,100.00
2022-07-30T01:41:50.271Z,100.00
2022-07-30T01:44:23.558Z,100.00
2022-07-30T01:46:52.789Z,100.00
2022-07-30T01:49:23.173Z,100.00
2022-07-30T01:51:51.966Z,100.00
2022-07-30T01:54:20.907Z,100.00
2022-07-30T01:56:52.034Z,100.00
2022-07-30T01:59:23.918Z,100.00
2022-07-30T02:01:51.768Z,100.00
2022-07-30T02:04:19.799Z,100.00
2022-07-30T02:06:50.877Z,100.00
2022-07-30T02:09:24.123Z,100.00
2022-07-30T02:12:14.094Z,100.00
2022-07-30T02:14:48.849Z,100.00
2022-07-30T02:17:21.861Z,100.00
2022-07-30T02:20:00.114Z,100.00
2022-07-30T02:22:32.486Z,100.00
2022-07-30T02:25:03.013Z,100.00
2022-07-30T02:27:36.195Z,100.00
2022-07-30T02:30:08.227Z,100.00
2022-07-30T02:32:39.647Z,100.00
2022-07-30T02:35:12.962Z,100.00
2022-07-30T02:37:43.519Z,100.00
2022-07-30T02:40:16.603Z,100.00
2022-07-30T02:42:47.745Z,100.00
2022-07-30T02:45:19.300Z,100.00
2022-07-30T02:47:49.787Z,100.00
2022-07-30T02:50:19.988Z,100.00
2022-07-30T02:52:49.388Z,100.00
2022-07-30T02:55:19.213Z,100.00
2022-07-30T02:57:49.698Z,100.00
2022-07-30T03:00:18.368Z,100.00
2022-07-30T03:02:47.143Z,100.00
2022-07-30T03:05:16.233Z,100.00
2022-07-30T03:07:45.301Z,100.00
2022-07-30T03:10:13.992Z,100.00
2022-07-30T03:12:45.295Z,100.00
2022-07-30T03:15:15.503Z,100.00
2022-07-30T03:17:50.025Z,100.00
2022-07-30T03:20:21.669Z,100.00
2022-07-30T03:22:54.088Z,100.00
2022-07-30T03:25:26.823Z,100.00
2022-07-30T03:27:57.873Z,100.00
2022-07-30T03:30:28.133Z,100.00
2022-07-30T03:32:57.637Z,100.00
2022-07-30T03:35:26.351Z,100.00
2022-07-30T03:37:56.839Z,100.00
2022-07-30T03:40:25.999Z,100.00
2022-07-30T03:42:53.849Z,100.00
2022-07-30T03:45:24.760Z,100.00
2022-07-30T03:47:59.125Z,100.00
2022-07-30T03:50:28.019Z,100.00
2022-07-30T03:52:56.449Z,100.00
2022-07-30T03:55:24.439Z,100.00
2022-07-30T03:58:11.669Z,100.00
2022-07-30T04:00:41.019Z,100.00
2022-07-30T04:03:11.379Z,100.00
2022-07-30T04:05:50.340Z,100.00
2022-07-30T04:08:18.019Z,100.00
2022-07-30T04:10:46.118Z,100.00
2022-07-30T04:13:22.554Z,100.00
2022-07-30T04:16:05.517Z,100.00
2022-07-30T04:18:51.165Z,100.00
2022-07-30T04:21:21.438Z,100.00
2022-07-30T04:24:03.837Z,100.00
2022-07-30T04:26:35.314Z,100.00
2022-07-30T04:29:06.269Z,100.00
2022-07-30T04:31:39.891Z,100.00
2022-07-30T04:34:28.930Z,100.00
2022-07-30T04:36:57.174Z,100.00
2022-07-30T04:39:25.940Z,100.00
2022-07-30T04:41:53.916Z,100.00
2022-07-30T04:44:32.878Z,100.00
2022-07-30T04:47:25.018Z,100.00
2022-07-30T04:50:18.950Z,100.00
2022-07-30T04:52:48.062Z,100.00
2022-07-30T04:55:23.661Z,100.00
2022-07-30T04:57:54.309Z,100.00
2022-07-30T05:00:23.337Z,100.00
2022-07-30T05:02:53.387Z,100.00
2022-07-30T05:05:24.743Z,100.00
2022-07-30T05:07:53.507Z,100.00
2022-07-30T05:10:21.853Z,100.00
2022-07-30T05:12:49.524Z,100.00
2022-07-30T05:15:21.210Z,100.00
2022-07-30T05:17:49.395Z,100.00
2022-07-30T05:20:17.435Z,100.00
2022-07-30T05:23:05.431Z,100.00
2022-07-30T05:25:33.497Z,100.00
2022-07-30T05:28:30.340Z,100.00
2022-07-30T05:31:01.970Z,100.00
2022-07-30T05:33:41.221Z,100.00
2022-07-30T05:36:12.113Z,100.00
2022-07-30T05:38:42.329Z,100.00
2022-07-30T05:41:30.709Z,100.00
2022-07-30T05:44:04.864Z,100.00
2022-07-30T05:46:32.676Z,100.00
2022-07-30T05:49:00.902Z,100.00
2022-07-30T05:51:29.337Z,100.00
2022-07-30T05:53:58.351Z,100.00
2022-07-30T05:56:44.702Z,100.00
2022-07-30T05:59:15.503Z,100.00
2022-07-30T06:02:03.184Z,100.00
2022-07-30T06:04:47.345Z,100.00
2022-07-30T06:07:15.269Z,100.00
2022-07-30T06:09:44.427Z,100.00
2022-07-30T06:12:12.360Z,100.00
2022-07-30T06:14:41.750Z,100.00
2022-07-30T06:17:12.898Z,100.00
2022-07-30T06:20:07.706Z,100.00
2022-07-30T06:22:48.367Z,100.00
2022-07-30T06:25:25.231Z,100.00
2022-07-30T06:27:53.003Z,100.00
2022-07-30T06:30:20.734Z,100.00
2022-07-30T06:32:58.514Z,100.00
2022-07-30T06:35:26.485Z,100.00
2022-07-30T06:38:05.900Z,100.00
2022-07-30T06:40:41.712Z,100.00
2022-07-30T06:43:32.359Z,100.00
2022-07-30T06:46:19.683Z,100.00
2022-07-30T06:48:49.994Z,100.00
2022-07-30T06:51:17.727Z,100.00
2022-07-30T06:53:46.006Z,100.00
2022-07-30T06:56:15.299Z,100.00
2022-07-30T06:58:48.384Z,100.00
2022-07-30T07:01:36.328Z,100.00
2022-07-30T07:04:05.029Z,100.00
2022-07-30T07:06:33.866Z,100.00
2022-07-30T07:09:02.152Z,100.00
2022-07-30T07:11:38.427Z,100.00
2022-07-30T07:14:10.331Z,100.00
2022-07-30T07:16:38.069Z,100.00
2022-07-30T07:20:00.217Z,98.84
2022-07-30T07:22:16.643Z,95.86
2022-07-30T07:24:45.379Z,96.54
2022-07-30T07:27:19.559Z,94.46
2022-07-30T07:30:05.480Z,92.23
2022-07-30T07:32:37.505Z,91.86
2022-07-30T07:35:06.438Z,91.03
2022-07-30T07:37:36.811Z,91.28
2022-07-30T07:40:07.908Z,89.51
2022-07-30T07:42:42.036Z,86.88
2022-07-30T07:45:10.659Z,85.97
2022-07-30T07:48:00.183Z,84.54
2022-07-30T07:50:48.195Z,87.04
2022-07-30T07:53:28.147Z,87.49
2022-07-30T07:55:57.288Z,85.19
2022-07-30T07:58:28.015Z,83.49
2022-07-30T08:01:01.420Z,82.65
2022-07-30T08:03:47.506Z,83.74
2022-07-30T08:06:41.157Z,83.59
2022-07-30T08:09:42.637Z,82.15
2022-07-30T08:12:25.649Z,80.07
2022-07-30T08:15:13.396Z,79.47
2022-07-30T08:17:59.852Z,79.14
2022-07-30T08:20:40.478Z,79.47
2022-07-30T08:23:08.687Z,78.66
2022-07-30T08:25:36.549Z,78.25
2022-07-30T08:28:04.524Z,78.17
2022-07-30T08:33:07.099Z,77.83
2022-07-30T08:35:35.170Z,79.32
2022-07-30T08:38:03.170Z,78.32
2022-07-30T08:40:34.502Z,78.54
2022-07-30T08:43:08.215Z,78.63
2022-07-30T08:45:39.920Z,76.95
2022-07-30T08:48:24.562Z,76.66
2022-07-30T08:50:52.605Z,77.30
2022-07-30T08:53:36.027Z,77.49
2022-07-30T08:56:05.713Z,76.56
2022-07-30T08:58:35.263Z,75.92
2022-07-30T09:01:07.426Z,75.61
2022-07-30T09:03:44.497Z,75.40
2022-07-30T09:06:12.859Z,75.45
2022-07-30T09:08:42.664Z,75.26
2022-07-30T09:11:12.380Z,73.90
2022-07-30T09:13:42.586Z,73.83
2022-07-30T09:16:21.687Z,73.81
2022-07-30T09:18:51.275Z,73.52
2022-07-30T09:21:22.190Z,73.70
2022-07-30T09:23:59.585Z,73.72
2022-07-30T09:26:58.093Z,71.94
2022-07-30T09:29:44.308Z,73.46
2022-07-30T09:32:50.834Z,73.75
2022-07-30T09:35:36.817Z,74.20
2022-07-30T09:38:11.275Z,73.66
2022-07-30T09:40:57.391Z,72.69
2022-07-30T09:43:43.789Z,70.63
2022-07-30T09:46:20.001Z,70.69
2022-07-30T09:48:49.539Z,71.31
2022-07-30T09:51:19.350Z,72.64
2022-07-30T09:53:55.478Z,72.44
2022-07-30T09:56:27.471Z,72.55
2022-07-30T09:58:59.018Z,71.72
2022-07-30T10:01:49.829Z,71.88
2022-07-30T10:04:34.737Z,71.01
2022-07-30T10:07:25.315Z,70.83
2022-07-30T10:09:54.159Z,70.81
2022-07-30T10:12:24.272Z,72.02
2022-07-30T10:14:54.756Z,70.42
2022-07-30T10:17:23.478Z,68.48
2022-07-30T10:20:15.621Z,69.79
2022-07-30T10:23:07.634Z,71.32
2022-07-30T10:25:37.023Z,69.37
2022-07-30T10:28:39.417Z,69.34
2022-07-30T10:31:46.833Z,68.50
2022-07-30T10:33:56.151Z,68.87
2022-07-30T10:36:26.748Z,67.23
2022-07-30T10:38:56.049Z,64.89
2022-07-30T10:41:42.715Z,65.40
2022-07-30T10:44:31.761Z,63.33
2022-07-30T10:47:07.253Z,64.10
2022-07-30T10:49:41.724Z,63.36
2022-07-30T10:52:12.784Z,61.79
2022-07-30T10:54:42.945Z,62.94
2022-07-30T10:57:15.205Z,63.33
2022-07-30T11:00:15.195Z,61.64
2022-07-30T11:03:19.967Z,60.16
2022-07-30T11:05:51.314Z,58.54
2022-07-30T11:08:42.569Z,58.53
2022-07-30T11:12:01.308Z,59.61
2022-07-30T11:15:06.156Z,59.80
2022-07-30T11:18:04.250Z,59.42
2022-07-30T11:20:33.272Z,60.14
2022-07-30T11:23:39.147Z,57.63
2022-07-30T11:26:07.653Z,57.12
2022-07-30T11:28:38.298Z,56.55
2022-07-30T11:31:36.893Z,55.75
2022-07-30T11:34:29.868Z,55.85
2022-07-30T11:37:21.645Z,55.34
2022-07-30T11:40:13.086Z,55.63
2022-07-30T11:42:42.525Z,54.94
2022-07-30T11:45:29.561Z,54.92
2022-07-30T11:48:00.157Z,54.40
2022-07-30T11:50:31.203Z,54.15
2022-07-30T11:53:00.907Z,53.01
2022-07-30T11:55:32.631Z,51.81
2022-07-30T11:58:01.932Z,52.85
2022-07-30T12:00:35.963Z,53.37
2022-07-30T12:03:09.531Z,52.55
2022-07-30T12:05:37.262Z,52.39
2022-07-30T12:08:05.320Z,52.73
2022-07-30T12:10:36.020Z,51.86
2022-07-30T12:13:14.612Z,51.16
2022-07-30T12:15:44.555Z,48.58
2022-07-30T12:18:28.756Z,48.05
2022-07-30T12:20:59.366Z,48.43
2022-07-30T12:23:27.830Z,47.49
2022-07-30T12:25:58.121Z,48.84
2022-07-30T12:28:27.275Z,49.13
2022-07-30T12:30:55.899Z,48.95
2022-07-30T12:33:24.865Z,48.73
2022-07-30T12:35:54.329Z,50.14
2022-07-30T12:38:23.753Z,48.48
2022-07-30T12:40:58.357Z,47.73
2022-07-30T12:43:47.389Z,48.76
2022-07-30T12:46:17.469Z,49.02
2022-07-30T12:48:57.014Z,46.63
2022-07-30T12:51:28.838Z,47.66
2022-07-30T12:53:58.070Z,47.79
2022-07-30T12:56:29.001Z,48.44
2022-07-30T12:58:58.547Z,47.29
2022-07-30T13:01:43.736Z,46.21
2022-07-30T13:04:12.461Z,45.03
2022-07-30T13:06:41.952Z,43.69
2022-07-30T13:09:20.077Z,43.81
2022-07-30T13:11:51.175Z,44.44
2022-07-30T13:14:19.176Z,44.40
2022-07-30T13:16:51.769Z,44.09
2022-07-30T13:19:19.381Z,43.71
2022-07-30T13:21:49.489Z,44.25
2022-07-30T13:24:17.749Z,44.78
2022-07-30T13:26:45.978Z,44.13
2022-07-30T13:29:15.367Z,42.87
2022-07-30T13:31:43.616Z,41.83
2022-07-30T13:34:11.877Z,41.15
2022-07-30T13:36:39.539Z,38.86
2022-07-30T13:39:07.472Z,40.29
2022-07-30T13:41:36.051Z,40.75
2022-07-30T13:44:04.022Z,41.26
2022-07-30T13:46:33.447Z,40.40
2022-07-30T13:49:01.075Z,39.20
2022-07-30T13:51:28.834Z,39.32
2022-07-30T13:53:56.529Z,38.51
2022-07-30T13:56:24.187Z,37.94
2022-07-30T13:58:51.931Z,37.41
2022-07-30T14:01:19.877Z,37.34
2022-07-30T14:03:50.866Z,36.31
2022-07-30T14:06:19.067Z,37.02
2022-07-30T14:08:46.916Z,38.63
2022-07-30T14:11:15.525Z,39.68
2022-07-30T14:13:43.135Z,39.72
2022-07-30T14:16:35.336Z,39.20
2022-07-30T14:19:00.937Z,38.43
2022-07-30T14:21:28.670Z,39.05
2022-07-30T14:23:56.505Z,38.34
2022-07-30T14:26:24.257Z,37.12
2022-07-30T14:28:57.612Z,35.69
2022-07-30T14:31:25.368Z,36.34
2022-07-30T14:33:52.946Z,36.27
2022-07-30T14:36:22.029Z,36.45
2022-07-30T14:38:52.159Z,36.64
2022-07-30T14:41:21.792Z,36.75
2022-07-30T14:43:49.918Z,37.31
2022-07-30T14:46:17.929Z,37.70
2022-07-30T14:48:45.574Z,38.50
2022-07-30T14:51:17.951Z,38.42
2022-07-30T14:53:50.189Z,39.02
2022-07-30T14:56:18.039Z,38.42
2022-07-30T14:58:45.698Z,35.34
2022-07-30T15:01:16.367Z,36.02
2022-07-30T15:03:45.273Z,37.03
2022-07-30T15:06:15.065Z,36.79
2022-07-30T15:08:43.067Z,35.58
2022-07-30T15:11:12.041Z,35.09
2022-07-30T15:13:50.200Z,33.80
2022-07-30T15:16:18.480Z,32.96
2022-07-30T15:18:46.397Z,34.06
2022-07-30T15:21:14.109Z,35.01
2022-07-30T15:23:41.887Z,34.30
2022-07-30T15:26:09.533Z,34.33
2022-07-30T15:28:38.607Z,34.79
2022-07-30T15:31:06.302Z,35.09
2022-07-30T15:33:37.062Z,36.47
2022-07-30T15:36:05.285Z,35.22
2022-07-30T15:38:33.903Z,34.32
2022-07-30T15:41:01.632Z,34.34
2022-07-30T15:43:29.447Z,34.77
2022-07-30T15:45:58.946Z,34.21
2022-07-30T15:48:27.715Z,34.28
2022-07-30T15:51:01.752Z,34.53
2022-07-30T15:53:29.718Z,34.47
2022-07-30T15:55:57.845Z,33.82
2022-07-30T15:58:25.497Z,33.86
2022-07-30T16:00:53.220Z,34.38
2022-07-30T16:03:22.179Z,34.43
2022-07-30T16:05:52.381Z,34.42
2022-07-30T16:08:20.563Z,34.45
2022-07-30T16:10:48.361Z,34.48
2022-07-30T16:13:16.019Z,34.98
2022-07-30T16:15:43.713Z,35.79
2022-07-30T16:18:11.348Z,36.43
2022-07-30T16:20:40.293Z,37.01
2022-07-30T16:23:12.687Z,36.86
2022-07-30T16:25:42.700Z,36.10
2022-07-30T16:28:10.351Z,36.76
2022-07-30T16:30:50.430Z,37.21
2022-07-30T16:33:19.778Z,36.98
2022-07-30T16:35:51.080Z,36.74
2022-07-30T16:38:19.635Z,37.12
2022-07-30T16:40:47.496Z,37.63
2022-07-30T16:43:16.195Z,38.21
2022-07-30T16:45:44.777Z,38.78
2022-07-30T16:48:13.704Z,39.12
2022-07-30T16:50:41.341Z,39.44
2022-07-30T16:53:14.209Z,39.61
2022-07-30T16:55:42.274Z,39.03
2022-07-30T16:58:10.352Z,38.63
2022-07-30T17:00:38.365Z,39.43
2022-07-30T17:03:06.080Z,40.08
2022-07-30T17:05:33.853Z,40.47
2022-07-30T17:08:01.470Z,40.26
2022-07-30T17:10:30.615Z,40.69
2022-07-30T17:12:58.182Z,39.99
2022-07-30T17:15:32.429Z,40.38
2022-07-30T17:18:01.193Z,40.85
2022-07-30T17:20:29.253Z,40.47
2022-07-30T17:22:57.109Z,40.48
2022-07-30T17:25:27.255Z,40.82
2022-07-30T17:27:56.440Z,39.51
2022-07-30T17:30:24.498Z,39.46
2022-07-30T17:32:52.430Z,39.37
2022-07-30T17:35:20.103Z,39.41
2022-07-30T17:37:47.758Z,39.22
2022-07-30T17:40:26.913Z,39.93
2022-07-30T17:43:03.020Z,40.02
2022-07-30T17:45:30.988Z,40.21
2022-07-30T17:48:01.642Z,40.39
2022-07-30T17:50:29.978Z,40.10
2022-07-30T17:52:57.626Z,40.50
2022-07-30T17:55:25.452Z,39.86
2022-07-30T17:57:53.058Z,39.96
2022-07-30T18:00:22.879Z,40.21
2022-07-30T18:02:50.519Z,40.16
2022-07-30T18:05:18.185Z,40.83
2022-07-30T18:07:45.906Z,40.93
2022-07-30T18:10:13.883Z,41.54
2022-07-30T18:12:48.524Z,40.94
2022-07-30T18:15:17.016Z,41.49
2022-07-30T18:17:46.334Z,41.30
2022-07-30T18:20:15.910Z,41.63
2022-07-30T18:22:43.612Z,41.48
2022-07-30T18:25:12.326Z,41.36
2022-07-30T18:27:47.669Z,41.36
2022-07-30T18:30:15.584Z,41.35
2022-07-30T18:32:43.241Z,41.23
2022-07-30T18:35:14.805Z,41.52
2022-07-30T18:37:43.718Z,40.78
2022-07-30T18:40:12.666Z,40.89
2022-07-30T18:42:40.432Z,40.91
2022-07-30T18:45:10.252Z,41.36
2022-07-30T18:47:37.872Z,41.70
2022-07-30T18:50:06.601Z,41.80
2022-07-30T18:52:35.884Z,42.17
2022-07-30T18:55:03.697Z,41.93
2022-07-30T18:57:31.345Z,42.46
2022-07-30T18:59:58.975Z,42.60
2022-07-30T19:02:26.633Z,42.26
2022-07-30T19:04:55.630Z,42.26
2022-07-30T19:07:23.449Z,42.90
2022-07-30T19:09:55.283Z,43.37
2022-07-30T19:12:23.343Z,43.49
2022-07-30T19:14:50.947Z,43.27
2022-07-30T19:17:18.586Z,43.83
2022-07-30T19:19:47.708Z,43.98
2022-07-30T19:22:15.606Z,44.40
2022-07-30T19:24:43.475Z,44.55
2022-07-30T19:27:14.391Z,44.66
2022-07-30T19:29:42.975Z,44.72
2022-07-30T19:32:10.585Z,45.26
2022-07-30T19:34:39.444Z,45.74
2022-07-30T19:37:07.040Z,45.92
2022-07-30T19:39:35.014Z,45.73
2022-07-30T19:42:03.989Z,45.78
2022-07-30T19:44:35.041Z,46.62
2022-07-30T19:47:05.675Z,46.69
2022-07-30T19:49:40.286Z,46.65
2022-07-30T19:52:23.399Z,47.31
2022-07-30T19:54:53.470Z,47.18
2022-07-30T19:57:21.077Z,47.44
2022-07-30T20:00:00.209Z,47.83
2022-07-30T20:02:40.239Z,47.92
2022-07-30T20:05:11.663Z,48.46
2022-07-30T20:07:42.345Z,48.56
2022-07-30T20:10:12.689Z,49.18
2022-07-30T20:12:42.192Z,48.99
2022-07-30T20:15:14.024Z,49.34
2022-07-30T20:17:42.683Z,49.71
2022-07-30T20:20:11.625Z,49.99
2022-07-30T20:22:39.353Z,49.99
2022-07-30T20:25:09.188Z,50.12
2022-07-30T20:30:26.918Z,50.98
2022-07-30T20:35:43.370Z,51.59
2022-07-30T20:38:12.709Z,51.65
2022-07-30T20:40:40.671Z,52.18
2022-07-30T20:43:10.529Z,52.54
2022-07-30T20:45:41.697Z,52.73
2022-07-30T20:48:17.356Z,53.32
2022-07-30T20:50:52.901Z,53.62
2022-07-30T20:53:22.995Z,53.74
2022-07-30T20:55:51.112Z,53.91
2022-07-30T20:58:19.680Z,54.31
2022-07-30T21:00:49.627Z,54.59
2022-07-30T21:03:18.835Z,54.80
2022-07-30T21:05:51.171Z,54.97
2022-07-30T21:08:20.085Z,55.30
2022-07-30T21:10:47.697Z,55.25
2022-07-30T21:13:15.691Z,55.56
2022-07-30T21:15:45.576Z,55.84
2022-07-30T21:18:33.046Z,55.72
2022-07-30T21:21:01.339Z,55.85
2022-07-30T21:23:33.254Z,55.94
2022-07-30T21:26:05.829Z,56.27
2022-07-30T21:28:38.583Z,56.03
2022-07-30T21:31:08.291Z,56.42
2022-07-30T21:33:38.342Z,56.53
2022-07-30T21:36:10.812Z,56.98
2022-07-30T21:38:39.166Z,57.17
2022-07-30T21:41:14.051Z,57.18
2022-07-30T21:43:42.851Z,57.34
2022-07-30T21:46:11.116Z,57.06
2022-07-30T21:48:40.355Z,57.24
2022-07-30T21:51:09.418Z,57.35
2022-07-30T21:53:45.244Z,57.27
2022-07-30T21:56:15.812Z,56.99
2022-07-30T21:58:43.817Z,57.65
2022-07-30T22:01:17.935Z,57.69
2022-07-30T22:04:03.080Z,57.45
2022-07-30T22:06:36.465Z,57.80
2022-07-30T22:09:19.440Z,57.51
2022-07-30T22:11:56.877Z,57.97
2022-07-30T22:14:28.835Z,58.19
2022-07-30T22:16:56.565Z,59.45
2022-07-30T22:21:54.007Z,60.22
2022-07-30T22:24:29.247Z,60.52
2022-07-30T22:27:01.135Z,60.99
2022-07-30T22:29:33.715Z,61.17
2022-07-30T22:32:03.103Z,61.19
2022-07-30T22:34:32.640Z,61.46
2022-07-30T22:37:00.458Z,61.60
2022-07-30T22:39:31.934Z,61.22
2022-07-30T22:42:15.981Z,60.98
2022-07-30T22:44:45.999Z,61.57
2022-07-30T22:47:18.729Z,62.03
2022-07-30T22:49:55.233Z,62.64
2022-07-30T22:52:27.384Z,62.93
2022-07-30T22:54:57.834Z,63.99
2022-07-30T22:57:28.664Z,64.36
2022-07-30T23:00:10.873Z,64.62
2022-07-30T23:02:39.435Z,64.16
2022-07-30T23:05:10.143Z,64.47
2022-07-30T23:07:40.341Z,64.55
2022-07-30T23:10:17.013Z,65.12
2022-07-30T23:12:18.035Z,50.54
2022-07-30T23:12:18.143Z,51.34
2022-07-30T23:12:47.873Z,65.78
2022-07-30T23:15:15.980Z,66.02
2022-07-30T23:17:44.359Z,66.32
2022-07-30T23:20:15.289Z,67.13
2022-07-30T23:22:42.972Z,67.83
2022-07-30T23:25:11.967Z,68.63
2022-07-30T23:27:40.239Z,69.97
2022-07-30T23:30:09.383Z,71.31
2022-07-30T23:32:37.980Z,72.06
2022-07-30T23:35:06.748Z,72.57
2022-07-30T23:37:38.041Z,72.79
2022-07-30T23:40:18.089Z,73.41
2022-07-30T23:42:45.791Z,73.32
2022-07-30T23:45:13.808Z,73.36
2022-07-30T23:48:02.017Z,72.92
2022-07-30T23:50:29.158Z,73.20
2022-07-30T23:52:58.381Z,72.68
2022-07-30T23:55:26.937Z,71.94
2022-07-30T23:57:54.988Z,71.59
